Time;durP1;ratioP1;P1;durP2;ratioP2;P2;SDS_P1;SDS_P2;PMS_P1;PMS_P2;Temp;Humidity;BMP_temperature;BMP_pressure;BME280_temperature;BME280_humidity;BME280_pressure;Samples;Min_cycle;Max_cycle;Signal;HPM_P1;HPM_P2
2021/03/08 00:00:40;;;;;;;5.32;4.70;;;;;;;;;;5029851;28;20290;-54
2021/03/08 00:03:07;;;;;;;4.85;4.35;;;;;;;;;;5032640;28;20452;-54
2021/03/08 00:05:33;;;;;;;5.05;4.60;;;;;;;;;;5017314;28;20584;-54
2021/03/08 00:07:59;;;;;;;4.80;4.30;;;;;;;;;;5021924;28;20207;-54
2021/03/08 00:10:25;;;;;;;5.03;4.53;;;;;;;;;;5024253;28;20184;-54
2021/03/08 00:12:51;;;;;;;5.28;4.78;;;;;;;;;;5032171;28;20226;-54
2021/03/08 00:15:18;;;;;;;4.57;3.90;;;;;;;;;;5029860;28;20199;-54
2021/03/08 00:17:45;;;;;;;4.90;4.25;;;;;;;;;;5022879;28;20215;-54
2021/03/08 00:20:12;;;;;;;5.05;4.05;;;;;;;;;;5013896;28;20544;-54
2021/03/08 00:22:39;;;;;;;4.70;4.20;;;;;;;;;;5022842;28;20547;-54
2021/03/08 00:25:06;;;;;;;5.28;4.22;;;;;;;;;;5013114;28;20185;-54
2021/03/08 00:27:32;;;;;;;4.50;4.07;;;;;;;;;;5021628;28;20184;-54
2021/03/08 00:29:58;;;;;;;4.78;4.15;;;;;;;;;;5015492;28;20555;-54
2021/03/08 00:32:24;;;;;;;5.88;4.20;;;;;;;;;;5015095;28;20231;-54
2021/03/08 00:34:50;;;;;;;4.30;3.83;;;;;;;;;;5019486;28;20196;-54
2021/03/08 00:37:16;;;;;;;5.13;4.18;;;;;;;;;;5030372;28;20301;-54
2021/03/08 00:39:42;;;;;;;6.20;4.03;;;;;;;;;;5014336;28;20176;-54
2021/03/08 00:42:08;;;;;;;3.58;3.28;;;;;;;;;;5014529;28;20254;-54
2021/03/08 00:44:34;;;;;;;3.72;3.28;;;;;;;;;;5024642;28;20425;-54
2021/03/08 00:47:00;;;;;;;4.65;3.50;;;;;;;;;;5026192;28;20195;-55
2021/03/08 00:49:26;;;;;;;3.67;3.38;;;;;;;;;;5019676;28;20312;-55
2021/03/08 00:51:52;;;;;;;4.20;3.40;;;;;;;;;;5032573;28;20251;-54
2021/03/08 00:54:18;;;;;;;4.18;3.78;;;;;;;;;;5032721;28;20571;-54
2021/03/08 00:56:44;;;;;;;4.15;3.67;;;;;;;;;;5020425;28;20215;-54
2021/03/08 00:59:10;;;;;;;4.13;3.22;;;;;;;;;;5027736;28;20191;-54
2021/03/08 01:01:36;;;;;;;3.40;3.10;;;;;;;;;;5024625;28;20191;-54
2021/03/08 01:04:02;;;;;;;4.07;3.22;;;;;;;;;;5017120;28;20584;-54
2021/03/08 01:06:28;;;;;;;3.58;3.28;;;;;;;;;;5031865;28;20583;-54
2021/03/08 01:08:54;;;;;;;3.58;3.28;;;;;;;;;;5032657;28;20191;-54
2021/03/08 01:11:20;;;;;;;3.53;2.95;;;;;;;;;;5026751;28;20265;-54
2021/03/08 01:13:46;;;;;;;3.30;3.00;;;;;;;;;;5023154;28;20611;-54
2021/03/08 01:16:12;;;;;;;3.30;3.00;;;;;;;;;;5014087;28;20291;-54
2021/03/08 01:18:38;;;;;;;3.28;2.95;;;;;;;;;;5032160;28;20230;-54
2021/03/08 01:21:04;;;;;;;3.42;2.65;;;;;;;;;;5033241;28;20233;-54
2021/03/08 01:23:30;;;;;;;3.17;2.88;;;;;;;;;;5033006;28;20191;-54
2021/03/08 01:25:56;;;;;;;3.20;3.00;;;;;;;;;;5026531;28;20176;-54
2021/03/08 01:28:22;;;;;;;4.70;3.20;;;;;;;;;;5017258;28;20588;-54
2021/03/08 01:30:48;;;;;;;3.30;3.00;;;;;;;;;;5027278;28;20176;-54
2021/03/08 01:33:14;;;;;;;3.40;2.95;;;;;;;;;;5032989;28;20175;-54
2021/03/08 01:35:41;;;;;;;3.20;2.85;;;;;;;;;;5017847;28;20200;-54
2021/03/08 01:38:07;;;;;;;2.70;2.50;;;;;;;;;;5021563;28;20189;-54
2021/03/08 01:40:34;;;;;;;3.55;2.90;;;;;;;;;;5013806;28;20203;-54
2021/03/08 01:43:00;;;;;;;2.70;2.50;;;;;;;;;;5017106;28;20189;-54
2021/03/08 01:45:26;;;;;;;3.03;2.75;;;;;;;;;;5025185;28;20185;-54
2021/03/08 01:47:53;;;;;;;3.13;2.78;;;;;;;;;;5028481;28;20439;-54
2021/03/08 01:50:27;;;;;;;5.13;3.28;;;;;;;;;;5019112;28;20196;-54
2021/03/08 01:52:54;;;;;;;3.38;2.92;;;;;;;;;;5014990;28;20184;-54
2021/03/08 01:55:20;;;;;;;2.75;2.55;;;;;;;;;;5030284;28;20188;-54
2021/03/08 01:57:47;;;;;;;3.15;2.85;;;;;;;;;;5019760;28;20208;-54
2021/03/08 02:00:13;;;;;;;2.83;2.60;;;;;;;;;;5024081;28;20462;-54
2021/03/08 02:02:39;;;;;;;3.60;3.30;;;;;;;;;;5023133;28;20188;-54
2021/03/08 02:05:06;;;;;;;3.55;2.88;;;;;;;;;;5016302;28;20452;-54
2021/03/08 02:07:32;;;;;;;3.58;2.65;;;;;;;;;;5018542;28;20575;-54
2021/03/08 02:09:58;;;;;;;3.97;2.90;;;;;;;;;;5034587;28;20229;-54
2021/03/08 02:12:43;;;;;;;3.25;2.47;;;;;;;;;;5032957;28;20282;-55
2021/03/08 02:15:17;;;;;;;3.40;2.67;;;;;;;;;;5021765;28;20181;-54
2021/03/08 02:17:57;;;;;;;4.70;2.97;;;;;;;;;;5024544;28;20318;-54
2021/03/08 02:20:25;;;;;;;3.45;2.58;;;;;;;;;;5016445;28;20172;-54
2021/03/08 02:22:51;;;;;;;2.70;2.50;;;;;;;;;;5029469;28;20187;-54
2021/03/08 02:25:24;;;;;;;3.55;2.80;;;;;;;;;;5022255;28;20188;-54
2021/03/08 02:28:08;;;;;;;3.00;2.72;;;;;;;;;;5031593;28;20188;-54
2021/03/08 02:30:48;;;;;;;3.72;2.60;;;;;;;;;;5029620;28;20192;-54
2021/03/08 02:33:26;;;;;;;3.25;3.00;;;;;;;;;;5017007;28;20181;-54
2021/03/08 02:35:55;;;;;;;3.35;3.05;;;;;;;;;;5035200;28;20279;-54
2021/03/08 02:38:23;;;;;;;3.15;2.85;;;;;;;;;;5027642;28;20258;-54
2021/03/08 02:40:54;;;;;;;3.50;2.83;;;;;;;;;;5032787;28;20176;-54
2021/03/08 02:43:28;;;;;;;4.10;2.83;;;;;;;;;;5030737;28;20181;-54
2021/03/08 02:45:54;;;;;;;3.83;2.85;;;;;;;;;;5021732;28;20184;-54
2021/03/08 02:48:23;;;;;;;3.25;2.85;;;;;;;;;;5015933;28;20583;-54
2021/03/08 02:50:51;;;;;;;3.17;2.90;;;;;;;;;;5020599;28;20189;-54
2021/03/08 02:53:18;;;;;;;5.57;2.95;;;;;;;;;;5028947;28;20549;-54
2021/03/08 02:55:52;;;;;;;2.90;2.70;;;;;;;;;;5030733;28;20259;-54
2021/03/08 02:58:18;;;;;;;4.18;2.97;;;;;;;;;;5021870;28;20462;-54
2021/03/08 03:00:47;;;;;;;3.40;2.78;;;;;;;;;;5025004;28;20250;-54
2021/03/08 03:03:14;;;;;;;2.58;2.38;;;;;;;;;;5026127;28;20180;-54
2021/03/08 03:05:41;;;;;;;3.15;2.75;;;;;;;;;;5024153;28;20188;-54
2021/03/08 03:08:10;;;;;;;3.58;2.95;;;;;;;;;;5026194;28;20191;-54
2021/03/08 03:10:37;;;;;;;3.58;2.90;;;;;;;;;;5034357;28;20171;-54
2021/03/08 03:13:04;;;;;;;3.35;2.83;;;;;;;;;;5030359;28;20203;-54
2021/03/08 03:15:32;;;;;;;3.03;2.83;;;;;;;;;;5026343;28;20180;-54
2021/03/08 03:17:59;;;;;;;3.53;3.22;;;;;;;;;;5028127;28;20269;-54
2021/03/08 03:20:26;;;;;;;3.53;3.22;;;;;;;;;;5018581;28;20199;-54
2021/03/08 03:22:52;;;;;;;3.55;2.92;;;;;;;;;;5024812;28;20180;-54
2021/03/08 03:25:20;;;;;;;5.03;2.78;;;;;;;;;;5033207;28;20184;-54
2021/03/08 03:27:47;;;;;;;3.70;3.40;;;;;;;;;;5017914;28;20188;-54
2021/03/08 03:30:14;;;;;;;3.88;3.03;;;;;;;;;;5031268;28;20582;-54
2021/03/08 03:32:42;;;;;;;2.88;2.65;;;;;;;;;;5033545;28;20273;-54
2021/03/08 03:35:09;;;;;;;3.28;2.97;;;;;;;;;;5033996;28;20238;-54
2021/03/08 03:37:35;;;;;;;4.05;3.00;;;;;;;;;;5034084;28;20215;-54
2021/03/08 03:40:01;;;;;;;4.03;3.35;;;;;;;;;;5024862;28;20188;-54
2021/03/08 03:42:27;;;;;;;4.03;3.30;;;;;;;;;;5024916;28;20223;-54
2021/03/08 03:44:53;;;;;;;3.20;2.90;;;;;;;;;;5030310;28;20559;-54
2021/03/08 03:47:19;;;;;;;3.28;2.97;;;;;;;;;;5015422;28;20199;-54
2021/03/08 03:49:45;;;;;;;3.83;3.08;;;;;;;;;;5014887;28;20231;-54
2021/03/08 03:52:11;;;;;;;3.50;3.00;;;;;;;;;;5018350;28;20534;-54
2021/03/08 03:54:37;;;;;;;3.25;2.97;;;;;;;;;;5032041;28;20259;-54
2021/03/08 03:57:06;;;;;;;3.95;3.58;;;;;;;;;;5021018;28;20523;-54
2021/03/08 03:59:50;;;;;;;3.70;3.40;;;;;;;;;;5022083;28;20184;-54
2021/03/08 04:02:20;;;;;;;3.53;3.22;;;;;;;;;;5034133;28;20475;-54
2021/03/08 04:04:53;;;;;;;4.68;3.28;;;;;;;;;;5020534;28;20889;-54
2021/03/08 04:07:20;;;;;;;3.70;3.40;;;;;;;;;;5016728;28;20192;-54
2021/03/08 04:09:50;;;;;;;3.47;3.17;;;;;;;;;;5014744;28;20526;-54
2021/03/08 04:12:20;;;;;;;3.70;2.90;;;;;;;;;;5022045;28;20200;-54
2021/03/08 04:14:52;;;;;;;3.97;3.17;;;;;;;;;;5026877;28;20228;-54
2021/03/08 04:17:18;;;;;;;3.80;3.30;;;;;;;;;;5024907;28;20208;-54
2021/03/08 04:19:44;;;;;;;3.42;3.13;;;;;;;;;;5014487;28;20283;-54
2021/03/08 04:22:12;;;;;;;3.17;2.88;;;;;;;;;;5020716;28;20185;-54
2021/03/08 04:24:39;;;;;;;3.95;3.63;;;;;;;;;;5030819;28;20176;-54
2021/03/08 04:27:06;;;;;;;4.68;3.10;;;;;;;;;;5019974;28;20630;-54
2021/03/08 04:29:35;;;;;;;3.88;3.47;;;;;;;;;;5026479;28;20181;-54
2021/03/08 04:32:02;;;;;;;4.53;3.63;;;;;;;;;;5014144;28;20176;-54
2021/03/08 04:34:29;;;;;;;5.50;3.53;;;;;;;;;;5024220;28;20216;-54
2021/03/08 04:36:55;;;;;;;4.05;3.60;;;;;;;;;;5028747;28;20197;-54
2021/03/08 04:39:21;;;;;;;4.28;3.30;;;;;;;;;;5023916;28;20196;-54
2021/03/08 04:41:47;;;;;;;3.85;3.40;;;;;;;;;;5014602;28;20188;-54
2021/03/08 04:44:13;;;;;;;3.50;3.25;;;;;;;;;;5025230;28;20233;-54
2021/03/08 04:46:39;;;;;;;4.97;3.88;;;;;;;;;;5022832;28;20203;-54
2021/03/08 04:49:07;;;;;;;4.00;3.30;;;;;;;;;;5020107;28;20192;-54
2021/03/08 04:51:33;;;;;;;5.05;3.30;;;;;;;;;;5021366;28;20207;-54
2021/03/08 04:54:00;;;;;;;5.32;4.45;;;;;;;;;;5020071;28;20191;-54
2021/03/08 04:56:28;;;;;;;5.05;3.88;;;;;;;;;;5028941;28;20199;-54
2021/03/08 04:58:55;;;;;;;4.18;3.78;;;;;;;;;;5032074;28;20187;-54
2021/03/08 05:01:23;;;;;;;4.15;3.75;;;;;;;;;;5032855;28;20254;-54
2021/03/08 05:03:50;;;;;;;4.10;3.70;;;;;;;;;;5033598;28;20199;-54
2021/03/08 05:06:17;;;;;;;5.72;3.83;;;;;;;;;;5015314;28;20250;-54
2021/03/08 05:08:43;;;;;;;5.10;3.67;;;;;;;;;;5018470;28;20185;-54
2021/03/08 05:11:11;;;;;;;3.90;3.47;;;;;;;;;;5013226;28;20757;-54
2021/03/08 05:13:38;;;;;;;3.88;3.45;;;;;;;;;;5022802;28;20633;-53
2021/03/08 05:16:04;;;;;;;2.20;2.00;;;;;;;;;;5019987;28;20274;-53
2021/03/08 05:18:31;;;;;;;1.90;1.80;;;;;;;;;;5022593;28;20618;-53
2021/03/08 05:20:57;;;;;;;2.25;2.05;;;;;;;;;;5013751;28;20199;-53
2021/03/08 05:23:24;;;;;;;2.70;2.45;;;;;;;;;;5019747;28;20184;-53
2021/03/08 05:25:50;;;;;;;2.45;1.90;;;;;;;;;;5013474;28;20307;-53
2021/03/08 05:28:17;;;;;;;2.28;2.00;;;;;;;;;;5025081;28;20374;-53
2021/03/08 05:30:43;;;;;;;2.75;1.60;;;;;;;;;;5014736;28;20211;-53
2021/03/08 05:33:09;;;;;;;2.55;1.60;;;;;;;;;;5014718;28;20215;-52
2021/03/08 05:35:35;;;;;;;3.80;1.90;;;;;;;;;;5023348;28;20265;-53
2021/03/08 05:38:03;;;;;;;1.90;1.48;;;;;;;;;;5033500;28;20200;-53
2021/03/08 05:40:33;;;;;;;1.73;1.58;;;;;;;;;;5019232;28;20173;-53
2021/03/08 05:43:03;;;;;;;1.67;1.58;;;;;;;;;;5028898;28;20481;-53
2021/03/08 05:45:31;;;;;;;1.50;1.40;;;;;;;;;;5025865;28;20595;-53
2021/03/08 05:47:57;;;;;;;1.50;1.40;;;;;;;;;;5023190;28;20194;-53
2021/03/08 05:50:26;;;;;;;1.40;1.30;;;;;;;;;;5034521;28;20514;-53
2021/03/08 05:53:18;;;;;;;1.88;1.58;;;;;;;;;;5031261;28;20188;-53
2021/03/08 05:55:57;;;;;;;1.42;1.33;;;;;;;;;;5017948;28;20323;-53
2021/03/08 05:58:29;;;;;;;1.80;1.50;;;;;;;;;;5032358;28;20187;-53
2021/03/08 06:01:15;;;;;;;1.70;1.60;;;;;;;;;;5034996;28;20478;-53
2021/03/08 06:03:53;;;;;;;1.50;1.40;;;;;;;;;;5010082;28;20471;-53
2021/03/08 06:06:38;;;;;;;1.75;1.55;;;;;;;;;;5035763;28;20183;-53
2021/03/08 06:09:04;;;;;;;1.35;1.25;;;;;;;;;;5028893;28;20601;-53
2021/03/08 06:11:33;;;;;;;2.13;1.10;;;;;;;;;;5026795;28;20227;-53
2021/03/08 06:14:00;;;;;;;1.85;1.40;;;;;;;;;;5029629;28;20767;-53
2021/03/08 06:16:33;;;;;;;1.50;1.40;;;;;;;;;;5023865;28;20283;-53
2021/03/08 06:19:00;;;;;;;1.60;1.50;;;;;;;;;;5027646;28;20201;-52
2021/03/08 06:21:26;;;;;;;2.65;1.38;;;;;;;;;;5026934;28;20189;-52
2021/03/08 06:23:53;;;;;;;1.27;1.20;;;;;;;;;;5033506;28;20233;-52
2021/03/08 06:26:19;;;;;;;2.55;1.40;;;;;;;;;;5034952;28;20233;-52
2021/03/08 06:28:45;;;;;;;1.45;1.35;;;;;;;;;;5034272;28;20203;-51
2021/03/08 06:31:11;;;;;;;1.40;1.30;;;;;;;;;;5021706;28;20254;-51
2021/03/08 06:33:38;;;;;;;2.22;1.40;;;;;;;;;;5021622;28;20231;-49
2021/03/08 06:36:04;;;;;;;2.90;1.35;;;;;;;;;;5017397;28;20503;-51
2021/03/08 06:38:31;;;;;;;1.30;1.20;;;;;;;;;;5022959;28;20192;-49
2021/03/08 06:40:58;;;;;;;1.60;1.50;;;;;;;;;;5016368;28;20761;-49
2021/03/08 06:43:26;;;;;;;1.70;1.60;;;;;;;;;;5021559;28;20183;-49
2021/03/08 06:45:52;;;;;;;1.98;1.50;;;;;;;;;;5028322;28;20188;-48
2021/03/08 06:48:18;;;;;;;2.75;1.33;;;;;;;;;;5029423;28;20190;-49
2021/03/08 06:50:44;;;;;;;1.40;1.27;;;;;;;;;;5024549;28;20619;-49
2021/03/08 06:53:10;;;;;;;1.80;1.33;;;;;;;;;;5029232;28;20194;-49
2021/03/08 06:55:36;;;;;;;1.63;1.35;;;;;;;;;;5034858;28;20179;-48
2021/03/08 06:58:18;;;;;;;1.70;1.60;;;;;;;;;;5021645;28;20208;-49
2021/03/08 07:00:44;;;;;;;4.28;1.30;;;;;;;;;;5022724;28;20193;-49
2021/03/08 07:03:37;;;;;;;1.42;1.33;;;;;;;;;;5018217;28;20621;-49
2021/03/08 07:06:14;;;;;;;1.85;1.10;;;;;;;;;;5030882;28;20199;-49
2021/03/08 07:08:40;;;;;;;1.42;1.30;;;;;;;;;;5029673;28;20274;-49
2021/03/08 07:11:20;;;;;;;1.40;1.30;;;;;;;;;;5030170;28;20433;-49
2021/03/08 07:13:46;;;;;;;1.50;1.40;;;;;;;;;;5027036;28;20715;-49
2021/03/08 07:16:13;;;;;;;1.50;1.40;;;;;;;;;;5029620;28;20624;-49
2021/03/08 07:18:40;;;;;;;3.20;1.20;;;;;;;;;;5027954;28;20271;-49
2021/03/08 07:21:12;;;;;;;3.22;1.48;;;;;;;;;;5028437;28;20187;-49
2021/03/08 07:23:39;;;;;;;2.42;1.25;;;;;;;;;;5025208;28;20189;-49
2021/03/08 07:26:06;;;;;;;2.53;1.70;;;;;;;;;;5021032;28;20621;-48
2021/03/08 07:28:32;;;;;;;2.13;1.48;;;;;;;;;;5022633;28;20191;-49
2021/03/08 07:30:58;;;;;;;1.42;1.33;;;;;;;;;;5026683;28;20555;-56
2021/03/08 07:33:24;;;;;;;3.85;2.13;;;;;;;;;;5026606;28;20184;-49
2021/03/08 07:35:53;;;;;;;8.80;2.17;;;;;;;;;;5020559;28;20206;-49
2021/03/08 07:38:19;;;;;;;7.25;2.85;;;;;;;;;;5021029;28;20204;-47
2021/03/08 07:40:46;;;;;;;5.30;2.40;;;;;;;;;;5027204;28;20311;-50
2021/03/08 07:43:19;;;;;;;7.68;2.35;;;;;;;;;;5014603;28;20203;-48
2021/03/08 07:45:46;;;;;;;10.40;2.97;;;;;;;;;;5014219;28;20256;-49
2021/03/08 07:48:13;;;;;;;5.97;2.83;;;;;;;;;;5024004;28;20213;-49
2021/03/08 07:50:40;;;;;;;9.43;3.28;;;;;;;;;;5033070;28;20188;-48
2021/03/08 07:53:22;;;;;;;11.40;3.05;;;;;;;;;;5034320;28;20247;-49
2021/03/08 07:55:48;;;;;;;7.40;2.85;;;;;;;;;;5028092;28;20184;-48
2021/03/08 07:58:16;;;;;;;8.57;3.00;;;;;;;;;;5013882;28;20233;-48
2021/03/08 08:00:42;;;;;;;7.93;2.92;;;;;;;;;;5026464;28;20358;-49
2021/03/08 08:03:08;;;;;;;7.47;2.55;;;;;;;;;;5033971;28;20186;-49
2021/03/08 08:05:34;;;;;;;8.40;3.00;;;;;;;;;;5033067;28;20180;-50
2021/03/08 08:08:01;;;;;;;10.15;3.30;;;;;;;;;;5035761;28;20233;-50
2021/03/08 08:10:28;;;;;;;6.53;2.40;;;;;;;;;;5024674;28;20250;-49
2021/03/08 08:12:58;;;;;;;8.15;2.50;;;;;;;;;;5015648;28;20275;-50
2021/03/08 08:15:24;;;;;;;8.50;2.80;;;;;;;;;;5015220;28;20460;-50
2021/03/08 08:17:51;;;;;;;11.77;3.40;;;;;;;;;;5027132;28;20342;-49
2021/03/08 08:20:18;;;;;;;4.03;2.45;;;;;;;;;;5032234;28;20174;-52
2021/03/08 08:22:51;;;;;;;6.63;2.60;;;;;;;;;;5024746;28;20215;-50
2021/03/08 08:25:17;;;;;;;8.15;3.05;;;;;;;;;;5022438;28;20198;-50
2021/03/08 08:27:43;;;;;;;10.25;2.78;;;;;;;;;;5034388;28;20918;-50
2021/03/08 08:30:10;;;;;;;8.02;2.88;;;;;;;;;;5034675;28;20188;-51
2021/03/08 08:32:52;;;;;;;4.50;2.63;;;;;;;;;;5033889;28;20175;-49
2021/03/08 08:35:20;;;;;;;6.22;2.65;;;;;;;;;;5023192;28;20267;-50
2021/03/08 08:38:06;;;;;;;5.15;2.50;;;;;;;;;;5014448;28;20662;-50
2021/03/08 08:40:32;;;;;;;4.60;2.30;;;;;;;;;;5014751;28;20185;-50
2021/03/08 08:43:16;;;;;;;8.52;2.33;;;;;;;;;;5014000;28;20440;-50
2021/03/08 08:45:44;;;;;;;6.75;2.38;;;;;;;;;;5014573;28;20192;-49
2021/03/08 08:48:10;;;;;;;6.22;2.30;;;;;;;;;;5014051;28;20202;-50
2021/03/08 08:50:45;;;;;;;4.93;2.40;;;;;;;;;;5012119;28;20259;-50
2021/03/08 08:53:11;;;;;;;4.60;2.22;;;;;;;;;;5014068;28;20180;-48
2021/03/08 08:55:38;;;;;;;7.07;2.75;;;;;;;;;;5014124;28;20181;-49
2021/03/08 08:58:19;;;;;;;5.63;2.85;;;;;;;;;;5014181;28;20204;-51
2021/03/08 09:01:04;;;;;;;6.45;2.67;;;;;;;;;;5027896;28;20183;-48
2021/03/08 09:03:49;;;;;;;3.40;2.30;;;;;;;;;;5034186;28;20225;-49
2021/03/08 09:06:34;;;;;;;5.65;2.20;;;;;;;;;;5033464;28;20634;-50
2021/03/08 09:09:00;;;;;;;9.32;2.10;;;;;;;;;;5029306;28;20267;-49
2021/03/08 09:11:44;;;;;;;5.93;2.05;;;;;;;;;;5034943;28;20267;-54
2021/03/08 09:14:46;;;;;;;5.47;2.50;;;;;;;;;;5036311;28;20200;-49
2021/03/08 09:17:26;;;;;;;4.88;2.00;;;;;;;;;;5020969;28;20217;-49
2021/03/08 09:19:57;;;;;;;5.47;2.10;;;;;;;;;;5037193;28;20242;-49
2021/03/08 09:24:52;;;;;;;174.65;66.75;;;;;;;;;;5026888;28;20211;-47
2021/03/08 09:27:24;;;;;;;130.85;49.45;;;;;;;;;;5035452;28;20261;-49
2021/03/08 09:29:51;;;;;;;111.72;44.72;;;;;;;;;;5022364;28;20190;-50
2021/03/08 09:32:17;;;;;;;105.95;42.58;;;;;;;;;;5027147;28;20277;-50
2021/03/08 09:34:44;;;;;;;109.57;41.50;;;;;;;;;;5036826;28;20192;-50
2021/03/08 09:37:10;;;;;;;99.65;37.88;;;;;;;;;;5029877;28;20211;-51
2021/03/08 09:40:05;;;;;;;102.30;36.38;;;;;;;;;;5033005;28;20526;-51
2021/03/08 09:42:35;;;;;;;80.85;30.17;;;;;;;;;;5023757;28;20199;-49
2021/03/08 09:45:01;;;;;;;79.13;27.65;;;;;;;;;;5022939;28;20472;-50
2021/03/08 09:47:40;;;;;;;67.47;26.35;;;;;;;;;;5027786;28;20296;-51
2021/03/08 09:50:06;;;;;;;79.00;27.65;;;;;;;;;;5017698;28;20188;-51
2021/03/08 09:52:33;;;;;;;78.18;26.63;;;;;;;;;;5019945;28;20257;-51
2021/03/08 09:54:59;;;;;;;80.53;26.67;;;;;;;;;;5036427;28;20215;-51
2021/03/08 09:57:31;;;;;;;75.28;26.23;;;;;;;;;;5035832;28;20235;-50
2021/03/08 09:59:58;;;;;;;68.68;23.75;;;;;;;;;;5026512;28;20478;-51
2021/03/08 10:02:24;;;;;;;63.63;23.58;;;;;;;;;;5037253;28;20176;-52
2021/03/08 10:04:54;;;;;;;62.92;25.20;;;;;;;;;;5033697;28;20656;-52
2021/03/08 10:07:20;;;;;;;64.55;22.58;;;;;;;;;;5035166;28;20183;-52
2021/03/08 10:09:46;;;;;;;63.03;22.67;;;;;;;;;;5035722;28;20183;-52
2021/03/08 10:12:12;;;;;;;65.85;22.27;;;;;;;;;;5030218;28;20575;-52
2021/03/08 10:14:38;;;;;;;61.50;21.63;;;;;;;;;;5020565;28;20180;-51
2021/03/08 10:17:05;;;;;;;56.83;21.20;;;;;;;;;;5031086;28;20181;-52
2021/03/08 10:19:31;;;;;;;55.85;20.67;;;;;;;;;;5017312;28;20177;-52
2021/03/08 10:21:57;;;;;;;58.80;21.15;;;;;;;;;;5016360;28;20180;-52
2021/03/08 10:24:34;;;;;;;53.97;21.40;;;;;;;;;;5015086;28;20182;-53
2021/03/08 10:27:00;;;;;;;55.28;20.13;;;;;;;;;;5015328;28;20196;-54
2021/03/08 10:29:26;;;;;;;62.45;21.77;;;;;;;;;;5015728;28;20184;-55
2021/03/08 10:31:53;;;;;;;57.33;20.75;;;;;;;;;;5030082;28;20260;-55
2021/03/08 10:34:20;;;;;;;52.67;19.42;;;;;;;;;;5034190;28;20168;-54
2021/03/08 10:36:46;;;;;;;52.22;19.90;;;;;;;;;;5035515;28;20278;-49
2021/03/08 10:39:13;;;;;;;60.10;19.70;;;;;;;;;;5036454;28;20184;-50
2021/03/08 10:41:40;;;;;;;59.90;21.27;;;;;;;;;;5032546;28;20235;-49
2021/03/08 10:44:07;;;;;;;61.80;20.48;;;;;;;;;;5024121;28;20214;-51
2021/03/08 10:46:40;;;;;;;50.90;18.73;;;;;;;;;;5036226;28;20230;-49
2021/03/08 10:49:08;;;;;;;53.63;19.98;;;;;;;;;;5035978;28;20555;-50
2021/03/08 10:51:35;;;;;;;48.88;18.50;;;;;;;;;;5035639;28;20187;-50
2021/03/08 10:54:01;;;;;;;54.50;18.50;;;;;;;;;;5019027;28;20195;-50
2021/03/08 10:56:28;;;;;;;46.25;17.52;;;;;;;;;;5027052;28;20250;-49
2021/03/08 10:58:55;;;;;;;43.53;16.60;;;;;;;;;;5018378;28;20180;-48
2021/03/08 11:01:22;;;;;;;44.70;17.45;;;;;;;;;;5021307;28;20471;-51
2021/03/08 11:03:48;;;;;;;38.72;15.40;;;;;;;;;;5027376;28;20781;-54
2021/03/08 11:06:17;;;;;;;44.40;16.42;;;;;;;;;;5035208;28;20207;-49
2021/03/08 11:08:59;;;;;;;38.83;15.43;;;;;;;;;;5033122;28;20227;-49
2021/03/08 11:11:28;;;;;;;43.25;16.80;;;;;;;;;;5030083;28;20188;-51
2021/03/08 11:13:57;;;;;;;36.85;14.90;;;;;;;;;;5017288;28;20295;-51
2021/03/08 11:16:23;;;;;;;37.03;14.18;;;;;;;;;;5027215;28;20198;-51
2021/03/08 11:18:50;;;;;;;35.38;13.88;;;;;;;;;;5031971;28;20681;-47
2021/03/08 11:21:19;;;;;;;35.45;14.57;;;;;;;;;;5033877;28;20286;-47
2021/03/08 11:23:45;;;;;;;33.53;13.30;;;;;;;;;;5032497;28;20234;-47
2021/03/08 11:26:11;;;;;;;33.90;14.48;;;;;;;;;;5031444;28;20188;-46
2021/03/08 11:28:41;;;;;;;39.83;13.70;;;;;;;;;;5022917;28;20207;-46
2021/03/08 11:31:18;;;;;;;33.75;13.25;;;;;;;;;;5022540;28;20262;-47
2021/03/08 11:33:47;;;;;;;30.90;12.73;;;;;;;;;;5024421;28;20566;-46
2021/03/08 11:36:13;;;;;;;26.95;12.85;;;;;;;;;;5024082;28;20271;-51
2021/03/08 11:38:39;;;;;;;31.38;13.30;;;;;;;;;;5025059;28;20196;-50
2021/03/08 11:41:05;;;;;;;26.98;12.60;;;;;;;;;;5026459;28;20187;-53
2021/03/08 11:43:32;;;;;;;31.95;13.73;;;;;;;;;;5026643;28;20173;-52
2021/03/08 11:45:58;;;;;;;28.90;12.27;;;;;;;;;;5029247;28;20209;-52
2021/03/08 11:48:25;;;;;;;30.00;13.85;;;;;;;;;;5018589;28;20208;-48
2021/03/08 11:50:51;;;;;;;33.75;14.20;;;;;;;;;;5024037;28;20226;-50
2021/03/08 11:53:18;;;;;;;31.23;13.45;;;;;;;;;;5025033;28;20184;-49
2021/03/08 11:55:43;;;;;;;32.33;13.32;;;;;;;;;;5031639;28;20501;-49
2021/03/08 11:58:10;;;;;;;31.17;14.13;;;;;;;;;;5022051;28;20249;-50
2021/03/08 12:00:36;;;;;;;33.95;14.27;;;;;;;;;;5034840;28;20180;-50
2021/03/08 12:03:02;;;;;;;36.92;13.70;;;;;;;;;;5050760;28;20452;-48
2021/03/08 12:05:28;;;;;;;40.80;15.27;;;;;;;;;;5030659;28;20473;-53
2021/03/08 12:07:54;;;;;;;32.38;14.75;;;;;;;;;;5022719;28;20271;-48
2021/03/08 12:10:20;;;;;;;38.80;14.70;;;;;;;;;;5033952;28;20187;-49
2021/03/08 12:12:46;;;;;;;29.95;13.63;;;;;;;;;;5019033;28;20208;-48
2021/03/08 12:15:12;;;;;;;41.10;14.27;;;;;;;;;;5031491;28;20195;-49
2021/03/08 12:17:39;;;;;;;31.48;13.30;;;;;;;;;;5024099;28;20212;-49
2021/03/08 12:20:07;;;;;;;28.52;12.45;;;;;;;;;;5015001;28;20298;-49
2021/03/08 12:22:35;;;;;;;23.75;11.13;;;;;;;;;;5017104;28;20177;-49
2021/03/08 12:25:01;;;;;;;26.55;11.25;;;;;;;;;;5016335;28;20246;-50
2021/03/08 12:27:27;;;;;;;27.80;12.30;;;;;;;;;;5023570;28;20204;-51
2021/03/08 12:29:53;;;;;;;28.55;12.45;;;;;;;;;;5032658;28;20262;-48
2021/03/08 12:32:19;;;;;;;27.88;11.10;;;;;;;;;;5029930;28;20276;-49
2021/03/08 12:34:45;;;;;;;26.70;11.48;;;;;;;;;;5020653;28;20702;-49
2021/03/08 12:37:11;;;;;;;21.63;10.02;;;;;;;;;;5027588;28;20207;-48
2021/03/08 12:39:37;;;;;;;23.73;10.43;;;;;;;;;;5025128;28;20182;-47
2021/03/08 12:42:03;;;;;;;20.67;9.70;;;;;;;;;;5028105;28;20464;-47
2021/03/08 12:44:30;;;;;;;17.92;9.57;;;;;;;;;;5019315;28;20188;-47
2021/03/08 12:46:56;;;;;;;19.75;9.93;;;;;;;;;;5014494;28;20251;-49
2021/03/08 12:49:22;;;;;;;18.08;9.32;;;;;;;;;;5021717;28;20194;-46
2021/03/08 12:51:48;;;;;;;19.77;8.52;;;;;;;;;;5033915;28;20175;-49
2021/03/08 12:54:14;;;;;;;25.05;13.02;;;;;;;;;;5026711;28;20499;-47
2021/03/08 12:56:41;;;;;;;29.23;16.40;;;;;;;;;;5031692;28;20283;-50
2021/03/08 12:59:07;;;;;;;30.48;16.02;;;;;;;;;;5033055;28;20203;-49
2021/03/08 13:01:33;;;;;;;32.47;16.85;;;;;;;;;;5034273;28;20259;-48
2021/03/08 13:03:59;;;;;;;29.17;16.25;;;;;;;;;;5033288;28;20188;-49
2021/03/08 13:06:25;;;;;;;32.33;14.25;;;;;;;;;;5033705;28;20184;-49
2021/03/08 13:08:51;;;;;;;30.20;14.63;;;;;;;;;;5043783;28;20422;-49
2021/03/08 13:11:17;;;;;;;29.80;14.30;;;;;;;;;;5025519;28;20176;-49
2021/03/08 13:13:43;;;;;;;29.38;13.13;;;;;;;;;;5033501;28;20249;-48
2021/03/08 13:16:09;;;;;;;25.00;12.52;;;;;;;;;;5033171;28;20649;-48
2021/03/08 13:18:35;;;;;;;27.48;12.75;;;;;;;;;;5015671;28;20185;-49
2021/03/08 13:21:01;;;;;;;27.15;12.40;;;;;;;;;;5015217;28;20188;-48
2021/03/08 13:23:27;;;;;;;28.27;11.80;;;;;;;;;;5018963;28;20180;-48
2021/03/08 13:25:53;;;;;;;25.48;11.80;;;;;;;;;;5033255;28;20168;-49
2021/03/08 13:28:19;;;;;;;22.77;11.55;;;;;;;;;;5023073;28;20198;-48
2021/03/08 13:30:45;;;;;;;24.25;10.57;;;;;;;;;;5025958;28;20674;-49
2021/03/08 13:33:11;;;;;;;22.67;10.85;;;;;;;;;;5013982;28;20176;-49
2021/03/08 13:35:38;;;;;;;24.10;10.90;;;;;;;;;;5022086;28;20222;-49
2021/03/08 13:38:04;;;;;;;21.48;10.02;;;;;;;;;;5032795;28;20203;-49
2021/03/08 13:40:30;;;;;;;22.52;10.13;;;;;;;;;;5031612;28;20188;-49
2021/03/08 13:42:56;;;;;;;18.90;9.80;;;;;;;;;;5014676;28;20578;-48
2021/03/08 13:45:22;;;;;;;18.63;9.90;;;;;;;;;;5024126;28;20180;-49
2021/03/08 13:47:48;;;;;;;22.10;9.90;;;;;;;;;;5029092;28;20184;-49
2021/03/08 13:50:14;;;;;;;15.48;8.57;;;;;;;;;;5033377;28;20522;-48
2021/03/08 13:52:40;;;;;;;16.92;8.80;;;;;;;;;;5030462;28;20574;-49
2021/03/08 13:55:06;;;;;;;18.63;8.88;;;;;;;;;;5016137;28;20193;-49
2021/03/08 13:57:32;;;;;;;16.45;8.57;;;;;;;;;;5020490;28;20262;-49
2021/03/08 13:59:59;;;;;;;16.00;8.70;;;;;;;;;;5027998;28;20176;-49
2021/03/08 14:02:25;;;;;;;18.08;9.23;;;;;;;;;;5034444;28;20203;-49
2021/03/08 14:04:52;;;;;;;17.05;8.15;;;;;;;;;;5016987;28;20263;-49
2021/03/08 14:07:18;;;;;;;15.88;7.80;;;;;;;;;;5017286;28;20184;-49
2021/03/08 14:09:45;;;;;;;15.27;7.65;;;;;;;;;;5017526;28;20204;-49
2021/03/08 14:12:11;;;;;;;12.05;7.20;;;;;;;;;;5034354;28;20188;-48
2021/03/08 14:14:37;;;;;;;17.30;7.00;;;;;;;;;;5022863;28;20251;-48
2021/03/08 14:17:03;;;;;;;12.65;6.97;;;;;;;;;;5032845;28;20263;-48
2021/03/08 14:19:29;;;;;;;15.10;6.90;;;;;;;;;;5036580;28;20172;-48
2021/03/08 14:21:55;;;;;;;10.25;5.85;;;;;;;;;;5033012;28;20202;-49
2021/03/08 14:24:21;;;;;;;11.88;6.10;;;;;;;;;;5034479;28;20295;-48
2021/03/08 14:26:47;;;;;;;13.18;6.10;;;;;;;;;;5035173;28;20251;-48
2021/03/08 14:29:13;;;;;;;15.05;6.60;;;;;;;;;;5022130;28;20579;-48
2021/03/08 14:31:39;;;;;;;12.68;6.05;;;;;;;;;;5028997;28;20216;-48
2021/03/08 14:34:05;;;;;;;12.45;6.60;;;;;;;;;;5023384;28;20192;-49
2021/03/08 14:36:31;;;;;;;13.32;6.47;;;;;;;;;;5017052;28;20239;-48
2021/03/08 14:38:57;;;;;;;16.25;6.80;;;;;;;;;;5020437;28;20575;-48
2021/03/08 14:41:23;;;;;;;13.10;5.90;;;;;;;;;;5024066;28;20208;-48